createdAt,value
2022-11-05T00:00:04.336Z,83.22
2022-11-05T00:00:14.324Z,83.22
2022-11-05T00:00:24.334Z,83.21
2022-11-05T00:00:32.886Z,83.27
2022-11-05T00:00:44.373Z,83.11
2022-11-05T00:00:54.346Z,83.20
2022-11-05T00:01:04.316Z,83.16
2022-11-05T00:01:12.881Z,83.13
2022-11-05T00:01:23.044Z,83.09
2022-11-05T00:01:32.933Z,83.11
2022-11-05T00:01:42.898Z,83.11
2022-11-05T00:01:52.942Z,83.11
2022-11-05T00:02:04.366Z,83.17
2022-11-05T00:02:14.303Z,83.24
2022-11-05T00:02:24.297Z,83.15
2022-11-05T00:02:32.895Z,83.16
2022-11-05T00:02:44.319Z,83.10
2022-11-05T00:02:53.333Z,83.19
2022-11-05T00:03:03.673Z,83.14
2022-11-05T00:03:13.291Z,83.21
2022-11-05T00:03:24.360Z,83.25
2022-11-05T00:03:33.005Z,83.25
2022-11-05T00:03:42.908Z,83.13
2022-11-05T00:03:52.877Z,83.17
2022-11-05T00:04:04.406Z,83.18
2022-11-05T00:04:12.940Z,83.22
2022-11-05T00:04:29.729Z,83.18
2022-11-05T00:04:34.866Z,83.52
2022-11-05T00:04:43.437Z,83.40
2022-11-05T00:04:53.405Z,83.24
2022-11-05T00:05:03.468Z,83.21
2022-11-05T00:05:14.855Z,83.24
2022-11-05T00:05:23.406Z,83.27
2022-11-05T00:05:34.848Z,83.19
2022-11-05T00:05:44.382Z,83.21
2022-11-05T00:05:53.416Z,83.17
2022-11-05T00:06:04.375Z,83.11
2022-11-05T00:06:13.395Z,83.15
2022-11-05T00:06:23.366Z,83.12
2022-11-05T00:06:33.396Z,83.02
2022-11-05T00:06:43.385Z,83.05
2022-11-05T00:06:53.367Z,82.98
2022-11-05T00:07:04.857Z,82.98
2022-11-05T00:07:13.379Z,83.05
2022-11-05T00:07:24.797Z,82.96
2022-11-05T00:07:34.399Z,83.03
2022-11-05T00:07:43.367Z,83.00
2022-11-05T00:07:53.497Z,82.90
2022-11-05T00:08:04.803Z,82.96
2022-11-05T00:08:14.366Z,82.98
2022-11-05T00:08:24.336Z,82.93
2022-11-05T00:08:33.388Z,82.90
2022-11-05T00:08:43.437Z,82.89
2022-11-05T00:08:54.137Z,82.90
2022-11-05T00:09:03.430Z,82.96
2022-11-05T00:09:14.807Z,82.94
2022-11-05T00:09:24.817Z,83.04
2022-11-05T00:09:34.795Z,83.01
2022-11-05T00:09:44.796Z,82.95
2022-11-05T00:09:54.037Z,83.04
2022-11-05T00:10:04.776Z,82.94
2022-11-05T00:10:13.747Z,83.06
2022-11-05T00:10:24.788Z,82.99
2022-11-05T00:10:33.337Z,83.10
2022-11-05T00:10:43.382Z,83.07
2022-11-05T00:10:54.218Z,83.07
2022-11-05T00:11:03.377Z,83.12
2022-11-05T00:11:18.087Z,83.04
2022-11-05T00:11:23.346Z,83.40
2022-11-05T00:11:33.337Z,83.20
2022-11-05T00:11:43.392Z,83.13
2022-11-05T00:11:53.377Z,83.14
2022-11-05T00:12:04.785Z,83.12
2022-11-05T00:12:13.818Z,83.21
2022-11-05T00:12:23.338Z,83.09
2022-11-05T00:12:33.594Z,83.07
2022-11-05T00:12:43.347Z,83.10
2022-11-05T00:12:53.373Z,83.15
2022-11-05T00:13:03.407Z,83.15
2022-11-05T00:13:13.629Z,83.12
2022-11-05T00:13:24.777Z,83.17
2022-11-05T00:13:34.808Z,83.19
2022-11-05T00:13:43.330Z,83.19
2022-11-05T00:13:54.797Z,83.06
2022-11-05T00:14:04.765Z,83.17
2022-11-05T00:14:13.318Z,83.16
2022-11-05T00:14:24.770Z,83.04
2022-11-05T00:14:33.355Z,83.15
2022-11-05T00:14:43.336Z,83.07
2022-11-05T00:14:54.316Z,83.12
2022-11-05T00:15:04.800Z,83.17
2022-11-05T00:15:14.758Z,83.18
2022-11-05T00:15:24.760Z,83.15
2022-11-05T00:15:34.260Z,83.12
2022-11-05T00:15:43.307Z,83.10
2022-11-05T00:15:53.393Z,83.10
2022-11-05T00:16:04.758Z,83.09
2022-11-05T00:16:13.297Z,83.15
2022-11-05T00:16:23.327Z,83.01
2022-11-05T00:16:33.307Z,83.07
2022-11-05T00:16:44.782Z,83.09
2022-11-05T00:16:54.753Z,83.12
2022-11-05T00:17:04.750Z,83.09
2022-11-05T00:17:14.107Z,83.09
2022-11-05T00:17:23.309Z,83.05
2022-11-05T00:17:34.739Z,83.06
2022-11-05T00:17:43.319Z,83.16
2022-11-05T00:17:54.768Z,83.08
2022-11-05T00:18:04.282Z,83.15
2022-11-05T00:18:14.747Z,83.11
2022-11-05T00:18:23.289Z,83.11
2022-11-05T00:18:34.333Z,83.07
2022-11-05T00:18:44.740Z,83.15
2022-11-05T00:18:53.276Z,83.14
2022-11-05T00:19:04.740Z,83.14
2022-11-05T00:19:14.729Z,83.23
2022-11-05T00:19:23.465Z,83.18
2022-11-05T00:19:34.723Z,83.11
2022-11-05T00:19:44.739Z,83.21
2022-11-05T00:19:54.249Z,83.23
2022-11-05T00:20:03.280Z,83.18
2022-11-05T00:20:14.751Z,83.13
2022-11-05T00:20:24.785Z,83.17
2022-11-05T00:20:33.258Z,83.18
2022-11-05T00:20:44.738Z,83.10
2022-11-05T00:20:54.716Z,83.21
2022-11-05T00:21:04.734Z,83.21
2022-11-05T00:21:14.709Z,83.14
2022-11-05T00:21:23.250Z,83.16
2022-11-05T00:21:34.718Z,83.07
2022-11-05T00:21:43.250Z,83.15
2022-11-05T00:21:53.288Z,83.13
2022-11-05T00:22:05.220Z,83.11
2022-11-05T00:22:14.729Z,83.23
2022-11-05T00:22:24.690Z,83.17
2022-11-05T00:22:33.261Z,83.20
2022-11-05T00:22:44.091Z,83.07
2022-11-05T00:22:54.699Z,83.16
2022-11-05T00:23:04.716Z,83.15
2022-11-05T00:23:13.480Z,83.17
2022-11-05T00:23:24.700Z,83.13
2022-11-05T00:23:33.250Z,83.20
2022-11-05T00:23:44.718Z,83.09
2022-11-05T00:23:54.699Z,83.20
2022-11-05T00:24:03.237Z,83.15
2022-11-05T00:24:13.252Z,83.08
2022-11-05T00:24:24.361Z,83.07
2022-11-05T00:24:33.262Z,83.12
2022-11-05T00:24:44.700Z,83.08
2022-11-05T00:24:54.698Z,83.12
2022-11-05T00:25:04.700Z,83.12
2022-11-05T00:25:14.672Z,83.11
2022-11-05T00:25:23.239Z,83.11
2022-11-05T00:25:33.252Z,83.01
2022-11-05T00:25:43.242Z,83.06
2022-11-05T00:25:54.709Z,83.07
2022-11-05T00:26:04.697Z,83.16
2022-11-05T00:26:14.683Z,83.18
2022-11-05T00:26:23.614Z,83.13
2022-11-05T00:26:34.657Z,83.11
2022-11-05T00:26:43.209Z,83.14
2022-11-05T00:26:54.669Z,83.06
2022-11-05T00:27:04.180Z,83.16
2022-11-05T00:27:14.671Z,83.10
2022-11-05T00:27:23.250Z,83.18
2022-11-05T00:27:33.404Z,83.11
2022-11-05T00:27:44.124Z,83.12
2022-11-05T00:27:53.235Z,83.20
2022-11-05T00:28:03.236Z,83.13
2022-11-05T00:28:13.239Z,83.13
2022-11-05T00:28:23.232Z,83.19
2022-11-05T00:28:34.658Z,83.16
2022-11-05T00:28:44.668Z,83.29
2022-11-05T00:28:53.216Z,83.23
2022-11-05T00:29:04.669Z,83.12
2022-11-05T00:29:13.231Z,83.25
2022-11-05T00:29:23.440Z,83.15
2022-11-05T00:29:33.204Z,83.19
2022-11-05T00:29:43.244Z,83.14
2022-11-05T00:29:54.684Z,83.18
2022-11-05T00:30:04.171Z,83.20
2022-11-05T00:30:13.233Z,83.13
2022-11-05T00:30:23.223Z,83.05
2022-11-05T00:30:33.628Z,83.07
2022-11-05T00:30:43.511Z,83.15
2022-11-05T00:30:53.181Z,83.08
2022-11-05T00:31:03.205Z,83.08
2022-11-05T00:31:14.630Z,83.04
2022-11-05T00:31:24.641Z,83.15
2022-11-05T00:31:34.651Z,83.13
2022-11-05T00:31:43.193Z,83.08
2022-11-05T00:31:54.675Z,83.01
2022-11-05T00:32:03.202Z,83.15
2022-11-05T00:32:14.622Z,83.01
2022-11-05T00:32:23.173Z,83.10
2022-11-05T00:32:34.646Z,82.99
2022-11-05T00:32:43.182Z,83.08
2022-11-05T00:32:53.183Z,82.99
2022-11-05T00:33:03.227Z,83.05
2022-11-05T00:33:13.425Z,83.06
2022-11-05T00:33:23.192Z,83.11
2022-11-05T00:33:34.624Z,83.06
2022-11-05T00:33:43.189Z,83.08
2022-11-05T00:33:54.682Z,83.01
2022-11-05T00:34:04.133Z,83.14
2022-11-05T00:34:14.632Z,83.05
2022-11-05T00:34:23.172Z,83.11
2022-11-05T00:34:33.185Z,83.05
2022-11-05T00:34:43.203Z,83.02
2022-11-05T00:34:53.942Z,83.05
2022-11-05T00:35:04.643Z,83.09
2022-11-05T00:35:14.646Z,83.13
2022-11-05T00:35:23.191Z,83.11
2022-11-05T00:35:33.184Z,83.03
2022-11-05T00:35:44.121Z,83.10
2022-11-05T00:35:54.624Z,83.13
2022-11-05T00:36:04.603Z,83.15
2022-11-05T00:36:13.173Z,83.13
2022-11-05T00:36:24.604Z,83.06
2022-11-05T00:36:34.267Z,83.15
2022-11-05T00:36:43.154Z,83.11
2022-11-05T00:36:53.163Z,83.01
2022-11-05T00:37:03.173Z,83.02
2022-11-05T00:37:14.613Z,83.10
2022-11-05T00:37:24.623Z,83.18
2022-11-05T00:37:33.139Z,83.12
2022-11-05T00:37:49.841Z,83.04
2022-11-05T00:37:55.692Z,83.45
2022-11-05T00:38:05.169Z,83.35
2022-11-05T00:38:15.181Z,83.18
2022-11-05T00:38:24.216Z,83.12
2022-11-05T00:38:34.197Z,83.08
2022-11-05T00:38:44.222Z,83.13
2022-11-05T00:38:55.634Z,83.12
2022-11-05T00:39:05.676Z,83.20
2022-11-05T00:39:14.203Z,83.17
2022-11-05T00:39:24.271Z,83.08
2022-11-05T00:39:34.175Z,83.13
2022-11-05T00:39:44.195Z,83.14
2022-11-05T00:39:54.193Z,83.16
2022-11-05T00:40:04.194Z,83.09
2022-11-05T00:40:14.197Z,83.16
2022-11-05T00:40:24.209Z,83.16
2022-11-05T00:40:34.935Z,83.13
2022-11-05T00:40:44.198Z,83.14
2022-11-05T00:40:55.615Z,83.12
2022-11-05T00:41:04.193Z,83.24
2022-11-05T00:41:15.625Z,83.06
2022-11-05T00:41:25.151Z,83.20
2022-11-05T00:41:35.633Z,83.17
2022-11-05T00:41:45.636Z,83.18
2022-11-05T00:41:54.176Z,83.16
2022-11-05T00:42:05.644Z,83.08
2022-11-05T00:42:15.617Z,83.20
2022-11-05T00:42:24.173Z,83.18
2022-11-05T00:42:35.623Z,83.08
2022-11-05T00:42:45.627Z,83.16
2022-11-05T00:42:54.215Z,83.15
2022-11-05T00:43:05.605Z,83.11
2022-11-05T00:43:15.614Z,83.19
2022-11-05T00:43:24.234Z,83.19
2022-11-05T00:43:35.611Z,83.10
2022-11-05T00:43:45.145Z,83.23
2022-11-05T00:43:55.595Z,83.21
2022-11-05T00:44:04.156Z,83.17
2022-11-05T00:44:14.148Z,83.09
2022-11-05T00:44:25.605Z,83.13
2022-11-05T00:44:35.626Z,83.22
2022-11-05T00:44:44.156Z,83.21
2022-11-05T00:44:55.614Z,83.14
2022-11-05T00:45:05.595Z,83.24
2022-11-05T00:45:14.134Z,83.20
2022-11-05T00:45:24.142Z,83.14
2022-11-05T00:45:34.146Z,83.15
2022-11-05T00:45:45.595Z,83.14
2022-11-05T00:45:54.139Z,83.29
2022-11-05T00:46:04.922Z,83.17
2022-11-05T00:46:14.166Z,83.30
2022-11-05T00:46:25.611Z,83.21
2022-11-05T00:46:34.136Z,83.30
2022-11-05T00:46:45.593Z,83.20
2022-11-05T00:46:59.742Z,83.32
2022-11-05T00:47:05.633Z,83.63
2022-11-05T00:47:16.115Z,83.47
2022-11-05T00:47:26.103Z,83.42
2022-11-05T00:47:36.089Z,83.39
2022-11-05T00:47:45.656Z,83.30
2022-11-05T00:47:54.855Z,83.26
2022-11-05T00:48:05.606Z,83.24
2022-11-05T00:48:14.663Z,83.32
2022-11-05T00:48:26.104Z,83.24
2022-11-05T00:48:36.106Z,83.33
2022-11-05T00:48:46.100Z,83.27
2022-11-05T00:48:56.085Z,83.27
2022-11-05T00:49:04.656Z,83.23
2022-11-05T00:49:14.652Z,83.17
2022-11-05T00:49:25.624Z,83.18
2022-11-05T00:49:36.095Z,83.25
2022-11-05T00:49:44.654Z,83.30
2022-11-05T00:49:54.646Z,83.18
2022-11-05T00:50:06.109Z,83.10
2022-11-05T00:50:15.548Z,83.23
2022-11-05T00:50:24.631Z,83.17
2022-11-05T00:50:36.100Z,83.12
2022-11-05T00:50:46.085Z,83.21
2022-11-05T00:50:54.626Z,83.21
2022-11-05T00:51:05.481Z,83.12
2022-11-05T00:51:16.086Z,83.16
2022-11-05T00:51:26.076Z,83.19
2022-11-05T00:51:36.074Z,83.21
2022-11-05T00:51:46.096Z,83.23
2022-11-05T00:51:54.626Z,83.16
2022-11-05T00:52:04.625Z,83.10
2022-11-05T00:52:14.635Z,83.16
2022-11-05T00:52:26.077Z,83.16
2022-11-05T00:52:36.067Z,83.17
2022-11-05T00:52:44.627Z,83.16
2022-11-05T00:52:54.637Z,83.12
2022-11-05T00:53:04.653Z,83.07
2022-11-05T00:53:14.697Z,83.08
2022-11-05T00:53:26.070Z,83.14
2022-11-05T00:53:34.607Z,83.20
2022-11-05T00:53:46.044Z,83.09
2022-11-05T00:53:56.066Z,83.20
2022-11-05T00:54:06.066Z,83.20
2022-11-05T00:54:14.609Z,83.16
2022-11-05T00:54:26.084Z,83.09
2022-11-05T00:54:35.556Z,83.23
2022-11-05T00:54:44.598Z,83.17
2022-11-05T00:54:56.057Z,83.10
2022-11-05T00:55:04.586Z,83.22
2022-11-05T00:55:16.057Z,83.12
2022-11-05T00:55:24.598Z,83.20
2022-11-05T00:55:34.640Z,83.15
2022-11-05T00:55:44.588Z,83.19
2022-11-05T00:55:56.045Z,83.20
2022-11-05T00:56:04.605Z,83.27
2022-11-05T00:56:15.477Z,83.21
2022-11-05T00:56:26.044Z,83.25
2022-11-05T00:56:36.046Z,83.25
2022-11-05T00:56:46.031Z,83.26
2022-11-05T00:56:59.366Z,83.25
2022-11-05T00:57:06.428Z,83.53
2022-11-05T00:57:17.065Z,83.35
2022-11-05T00:57:25.605Z,83.33
2022-11-05T00:57:37.068Z,83.26
2022-11-05T00:57:45.630Z,83.32
2022-11-05T00:57:56.820Z,83.25
2022-11-05T00:58:05.608Z,83.28
2022-11-05T00:58:17.057Z,83.25
2022-11-05T00:58:25.620Z,83.27
2022-11-05T00:58:37.047Z,83.16
2022-11-05T00:58:47.069Z,83.30
2022-11-05T00:58:57.047Z,83.23
2022-11-05T00:59:05.587Z,83.23
2022-11-05T00:59:17.068Z,83.17
2022-11-05T00:59:27.057Z,83.27
2022-11-05T00:59:37.049Z,83.19
2022-11-05T00:59:45.588Z,83.25
2022-11-05T00:59:55.588Z,83.15
2022-11-05T01:00:07.049Z,83.21
2022-11-05T01:00:15.594Z,83.32
2022-11-05T01:00:25.599Z,83.26
2022-11-05T01:00:37.038Z,83.26
2022-11-05T01:00:45.595Z,83.33
2022-11-05T01:00:57.060Z,83.25
2022-11-05T01:01:06.600Z,83.37
2022-11-05T01:01:15.756Z,83.31
2022-11-05T01:01:25.648Z,83.27
2022-11-05T01:01:37.168Z,83.31
2022-11-05T01:01:47.116Z,83.37
2022-11-05T01:01:56.570Z,83.38
2022-11-05T01:02:05.674Z,83.37
2022-11-05T01:02:15.751Z,83.37
2022-11-05T01:02:27.230Z,83.32
2022-11-05T01:02:35.755Z,83.43
2022-11-05T01:02:46.543Z,83.32
2022-11-05T01:02:57.148Z,83.34
2022-11-05T01:03:07.042Z,83.37
2022-11-05T01:03:17.012Z,83.34
2022-11-05T01:03:27.018Z,83.37
2022-11-05T01:03:36.999Z,83.32
2022-11-05T01:03:51.470Z,83.34
2022-11-05T01:03:57.906Z,83.73
2022-11-05T01:04:06.450Z,83.54
2022-11-05T01:04:17.960Z,83.38
2022-11-05T01:04:27.410Z,83.48
2022-11-05T01:04:36.471Z,83.39
2022-11-05T01:04:46.469Z,83.33
2022-11-05T01:04:57.910Z,83.36
2022-11-05T01:05:07.919Z,83.44
2022-11-05T01:05:16.440Z,83.39
2022-11-05T01:05:27.913Z,83.32
2022-11-05T01:05:36.988Z,83.44
2022-11-05T01:05:46.459Z,83.34
2022-11-05T01:05:57.889Z,83.33
2022-11-05T01:06:06.450Z,83.38
2022-11-05T01:06:16.449Z,83.35
2022-11-05T01:06:27.898Z,83.34
2022-11-05T01:06:37.881Z,83.37
2022-11-05T01:06:47.889Z,83.38
2022-11-05T01:06:56.429Z,83.30
2022-11-05T01:07:06.451Z,83.24
2022-11-05T01:07:16.449Z,83.30
2022-11-05T01:07:27.230Z,83.30
2022-11-05T01:07:37.897Z,83.36
2022-11-05T01:07:46.454Z,83.33
2022-11-05T01:07:57.901Z,83.23
2022-11-05T01:08:06.449Z,83.29
2022-11-05T01:08:17.402Z,83.22
2022-11-05T01:08:26.442Z,83.32
2022-11-05T01:08:36.491Z,83.25
2022-11-05T01:08:47.349Z,83.24
2022-11-05T01:08:57.878Z,83.28
2022-11-05T01:09:07.868Z,83.27
2022-11-05T01:09:17.379Z,83.28
2022-11-05T01:09:27.879Z,83.18
2022-11-05T01:09:37.860Z,83.29
2022-11-05T01:09:47.259Z,83.29
2022-11-05T01:09:57.883Z,83.21
2022-11-05T01:10:07.880Z,83.29
2022-11-05T01:10:16.403Z,83.27
2022-11-05T01:10:26.450Z,83.13
2022-11-05T01:10:37.851Z,83.19
2022-11-05T01:10:46.411Z,83.26
2022-11-05T01:10:58.014Z,83.20
2022-11-05T01:11:07.861Z,83.31
2022-11-05T01:11:17.360Z,83.25
2022-11-05T01:11:26.414Z,83.22
2022-11-05T01:11:36.761Z,83.21
2022-11-05T01:11:47.381Z,83.26
2022-11-05T01:11:56.408Z,83.28
2022-11-05T01:12:06.411Z,83.27
2022-11-05T01:12:16.413Z,83.29
2022-11-05T01:12:27.861Z,83.27
2022-11-05T01:12:37.831Z,83.38
2022-11-05T01:12:47.841Z,83.35
2022-11-05T01:12:56.431Z,83.31
2022-11-05T01:13:12.696Z,83.24
2022-11-05T01:13:18.654Z,83.66
2022-11-05T01:13:28.400Z,83.55
2022-11-05T01:13:38.871Z,83.40
2022-11-05T01:13:47.429Z,83.38
2022-11-05T01:13:58.394Z,83.28
2022-11-05T01:14:07.411Z,83.36
2022-11-05T01:14:17.455Z,83.27
2022-11-05T01:14:27.441Z,83.30
2022-11-05T01:14:37.432Z,83.30
2022-11-05T01:14:48.865Z,83.36
2022-11-05T01:14:57.421Z,83.40
2022-11-05T01:15:08.890Z,83.30
2022-11-05T01:15:17.433Z,83.38
2022-11-05T01:15:28.880Z,83.29
2022-11-05T01:15:37.433Z,83.44
2022-11-05T01:15:47.430Z,83.31
2022-11-05T01:15:58.209Z,83.35
2022-11-05T01:16:08.922Z,83.39
2022-11-05T01:16:17.421Z,83.40
2022-11-05T01:16:28.880Z,83.31
2022-11-05T01:16:38.356Z,83.40
2022-11-05T01:16:48.861Z,83.40
2022-11-05T01:16:58.862Z,83.41
2022-11-05T01:17:07.401Z,83.40
2022-11-05T01:17:18.330Z,83.30
2022-11-05T01:17:27.394Z,83.34
2022-11-05T01:17:37.415Z,83.32
2022-11-05T01:17:47.412Z,83.32
2022-11-05T01:17:58.262Z,83.37
2022-11-05T01:18:08.862Z,83.41
2022-11-05T01:18:17.402Z,83.42
2022-11-05T01:18:28.852Z,83.30
2022-11-05T01:18:37.384Z,83.39
2022-11-05T01:18:48.842Z,83.35
2022-11-05T01:18:57.392Z,83.44
2022-11-05T01:19:07.406Z,83.30
2022-11-05T01:19:18.862Z,83.36
2022-11-05T01:19:27.373Z,83.41
2022-11-05T01:19:38.371Z,83.32
2022-11-05T01:19:48.841Z,83.41
2022-11-05T01:19:58.832Z,83.41
2022-11-05T01:20:08.333Z,83.42
2022-11-05T01:20:17.390Z,83.34
2022-11-05T01:20:27.492Z,83.31
2022-11-05T01:20:37.382Z,83.31
2022-11-05T01:20:48.837Z,83.31
2022-11-05T01:20:58.833Z,83.40
2022-11-05T01:21:08.814Z,83.40
2022-11-05T01:21:18.831Z,83.32
2022-11-05T01:21:27.373Z,83.33
2022-11-05T01:21:38.831Z,83.27
2022-11-05T01:21:48.803Z,83.36
2022-11-05T01:21:58.133Z,83.35
2022-11-05T01:22:08.816Z,83.29
2022-11-05T01:22:17.372Z,83.31
2022-11-05T01:22:28.824Z,83.28
2022-11-05T01:22:38.825Z,83.37
2022-11-05T01:22:48.794Z,83.32
2022-11-05T01:22:58.333Z,83.33
2022-11-05T01:23:12.098Z,83.26
2022-11-05T01:23:17.648Z,83.56
2022-11-05T01:23:28.801Z,83.44
2022-11-05T01:23:38.805Z,83.38
2022-11-05T01:23:48.784Z,83.36
2022-11-05T01:23:57.373Z,83.34
2022-11-05T01:24:07.352Z,83.22
2022-11-05T01:24:17.356Z,83.33
2022-11-05T01:24:27.353Z,83.31
2022-11-05T01:24:39.134Z,83.27
2022-11-05T01:24:48.791Z,83.40
2022-11-05T01:24:57.435Z,83.34
2022-11-05T01:25:08.793Z,83.25
2022-11-05T01:25:17.342Z,83.33
2022-11-05T01:25:28.792Z,83.30
2022-11-05T01:25:38.798Z,83.38
2022-11-05T01:25:48.775Z,83.36
2022-11-05T01:25:58.314Z,83.36
2022-11-05T01:26:08.797Z,83.34
2022-11-05T01:26:17.476Z,83.35
2022-11-05T01:26:28.762Z,83.25
2022-11-05T01:26:38.793Z,83.38
2022-11-05T01:26:47.323Z,83.40
2022-11-05T01:26:58.774Z,83.28
2022-11-05T01:27:08.775Z,83.38
2022-11-05T01:27:17.351Z,83.38
2022-11-05T01:27:27.336Z,83.34
2022-11-05T01:27:38.105Z,83.30
2022-11-05T01:27:48.783Z,83.40
2022-11-05T01:27:57.345Z,83.38
2022-11-05T01:28:08.783Z,83.28
2022-11-05T01:28:17.373Z,83.38
2022-11-05T01:28:28.321Z,83.31
2022-11-05T01:28:38.832Z,83.31
2022-11-05T01:28:47.414Z,83.35
2022-11-05T01:28:57.434Z,83.31
2022-11-05T01:29:07.429Z,83.30
2022-11-05T01:29:17.315Z,83.32
2022-11-05T01:29:28.014Z,83.31
2022-11-05T01:29:37.308Z,83.39
2022-11-05T01:29:47.314Z,83.28
2022-11-05T01:29:57.311Z,83.36
2022-11-05T01:30:08.128Z,83.35
2022-11-05T01:30:17.335Z,83.35
2022-11-05T01:30:27.317Z,83.26
2022-11-05T01:30:38.775Z,83.25
2022-11-05T01:30:47.316Z,83.36
2022-11-05T01:30:58.296Z,83.25
2022-11-05T01:31:08.735Z,83.39
2022-11-05T01:31:18.755Z,83.34
2022-11-05T01:31:28.755Z,83.34
2022-11-05T01:31:38.742Z,83.34
2022-11-05T01:31:47.295Z,83.35
2022-11-05T01:31:57.297Z,83.23
2022-11-05T01:32:07.315Z,83.32
2022-11-05T01:32:18.749Z,83.23
2022-11-05T01:32:27.299Z,83.33
2022-11-05T01:32:37.296Z,83.22
2022-11-05T01:32:47.285Z,83.24
2022-11-05T01:32:57.333Z,83.25
2022-11-05T01:33:09.018Z,83.27
2022-11-05T01:33:17.294Z,83.35
2022-11-05T01:33:28.054Z,83.21
2022-11-05T01:33:38.736Z,83.28
2022-11-05T01:33:47.306Z,83.29
2022-11-05T01:33:57.304Z,83.21
2022-11-05T01:34:08.728Z,83.19
2022-11-05T01:34:18.235Z,83.29
2022-11-05T01:34:28.728Z,83.27
2022-11-05T01:34:37.267Z,83.26
2022-11-05T01:34:48.745Z,83.13
2022-11-05T01:34:58.246Z,83.28
2022-11-05T01:35:08.736Z,83.22
2022-11-05T01:35:18.727Z,83.25
2022-11-05T01:35:28.117Z,83.21
2022-11-05T01:35:38.717Z,83.19
2022-11-05T01:35:48.264Z,83.18
2022-11-05T01:35:58.224Z,83.20
2022-11-05T01:36:08.216Z,83.19
2022-11-05T01:36:17.266Z,83.20
2022-11-05T01:36:27.278Z,83.12
2022-11-05T01:36:37.265Z,83.15
2022-11-05T01:36:47.265Z,83.20
2022-11-05T01:36:58.727Z,83.15
2022-11-05T01:37:08.706Z,83.25
2022-11-05T01:37:18.226Z,83.22
2022-11-05T01:37:28.720Z,83.16
2022-11-05T01:37:37.247Z,83.20
2022-11-05T01:37:47.324Z,83.11
2022-11-05T01:37:57.288Z,83.15
2022-11-05T01:38:08.715Z,83.17
2022-11-05T01:38:17.258Z,83.26
2022-11-05T01:38:28.089Z,83.19
2022-11-05T01:38:38.699Z,83.21
2022-11-05T01:38:48.677Z,83.29
2022-11-05T01:38:57.243Z,83.27
2022-11-05T01:39:07.813Z,83.17
2022-11-05T01:39:17.238Z,83.24
2022-11-05T01:39:28.255Z,83.23
2022-11-05T01:39:38.195Z,83.27
2022-11-05T01:39:47.228Z,83.24
2022-11-05T01:39:58.197Z,83.18
2022-11-05T01:40:08.676Z,83.25
2022-11-05T01:40:18.687Z,83.31
2022-11-05T01:40:28.189Z,83.25
2022-11-05T01:40:37.253Z,83.23
2022-11-05T01:40:48.709Z,83.17
2022-11-05T01:40:58.689Z,83.26
2022-11-05T01:41:08.233Z,83.25
2022-11-05T01:41:18.701Z,83.22
2022-11-05T01:41:28.167Z,83.22
2022-11-05T01:41:37.224Z,83.19
2022-11-05T01:41:48.678Z,83.15
2022-11-05T01:41:58.188Z,83.28
2022-11-05T01:42:07.225Z,83.20
2022-11-05T01:42:18.190Z,83.15
2022-11-05T01:42:28.687Z,83.24
2022-11-05T01:42:37.208Z,83.26
2022-11-05T01:42:47.231Z,83.14
2022-11-05T01:42:57.256Z,83.15
2022-11-05T01:43:07.219Z,83.20
2022-11-05T01:43:18.216Z,83.20
2022-11-05T01:43:28.676Z,83.27
2022-11-05T01:43:38.667Z,83.27
2022-11-05T01:43:47.207Z,83.27
2022-11-05T01:43:57.208Z,83.11
2022-11-05T01:44:08.111Z,83.24
2022-11-05T01:44:18.671Z,83.26
2022-11-05T01:44:28.647Z,83.28
2022-11-05T01:44:37.208Z,83.24
2022-11-05T01:44:47.217Z,83.15
2022-11-05T01:44:58.667Z,83.21
2022-11-05T01:45:07.198Z,83.27
2022-11-05T01:45:17.248Z,83.17
2022-11-05T01:45:28.190Z,83.25
2022-11-05T01:45:38.665Z,83.26
2022-11-05T01:45:47.890Z,83.28
2022-11-05T01:45:57.200Z,83.22
2022-11-05T01:46:07.199Z,83.22
2022-11-05T01:46:18.652Z,83.21
2022-11-05T01:46:28.647Z,83.35
2022-11-05T01:46:37.186Z,83.29
2022-11-05T01:46:48.058Z,83.27
2022-11-05T01:46:58.658Z,83.35
2022-11-05T01:47:07.187Z,83.38
2022-11-05T01:47:18.637Z,83.27
2022-11-05T01:47:27.822Z,83.32
2022-11-05T01:47:37.190Z,83.32
2022-11-05T01:47:48.703Z,83.29
2022-11-05T01:47:58.657Z,83.43
2022-11-05T01:48:07.186Z,83.36
2022-11-05T01:48:18.626Z,83.32
2022-11-05T01:48:27.170Z,83.44
2022-11-05T01:48:38.635Z,83.35
2022-11-05T01:48:47.179Z,83.42
2022-11-05T01:49:02.697Z,83.36
2022-11-05T01:49:07.378Z,83.71
2022-11-05T01:49:18.630Z,83.55
2022-11-05T01:49:28.616Z,83.56
2022-11-05T01:49:38.040Z,83.51
2022-11-05T01:49:48.611Z,83.44
2022-11-05T01:49:57.170Z,83.50
2022-11-05T01:50:08.628Z,83.40
2022-11-05T01:50:17.151Z,83.47
2022-11-05T01:50:27.959Z,83.37
2022-11-05T01:50:38.616Z,83.42
2022-11-05T01:50:48.602Z,83.45
2022-11-05T01:50:58.597Z,83.47
2022-11-05T01:51:07.158Z,83.41
2022-11-05T01:51:17.159Z,83.38
2022-11-05T01:51:28.610Z,83.39
2022-11-05T01:51:38.609Z,83.51
2022-11-05T01:51:48.629Z,83.51
2022-11-05T01:51:58.071Z,83.47
2022-11-05T01:52:07.157Z,83.48
2022-11-05T01:52:18.613Z,83.45
2022-11-05T01:52:27.153Z,83.56
2022-11-05T01:52:37.140Z,83.44
2022-11-05T01:52:47.166Z,83.49
2022-11-05T01:52:57.200Z,83.47
2022-11-05T01:53:09.001Z,83.53
2022-11-05T01:53:18.591Z,83.63
2022-11-05T01:53:27.150Z,83.58
2022-11-05T01:53:37.161Z,83.47
2022-11-05T01:53:47.141Z,83.51
2022-11-05T01:53:57.176Z,83.53
2022-11-05T01:54:07.141Z,83.54
2022-11-05T01:54:18.108Z,83.55
2022-11-05T01:54:28.584Z,83.62
2022-11-05T01:54:38.580Z,83.62
2022-11-05T01:54:48.057Z,83.60
2022-11-05T01:54:57.128Z,83.56
2022-11-05T01:55:08.591Z,83.51
2022-11-05T01:55:17.120Z,83.61
2022-11-05T01:55:27.120Z,83.50
2022-11-05T01:55:38.584Z,83.54
2022-11-05T01:55:48.020Z,83.58
2022-11-05T01:55:57.131Z,83.56
2022-11-05T01:56:07.163Z,83.51
2022-11-05T01:56:17.911Z,83.53
2022-11-05T01:56:28.621Z,83.54
2022-11-05T01:56:38.542Z,83.63
2022-11-05T01:56:48.121Z,83.54
2022-11-05T01:56:58.553Z,83.55
2022-11-05T01:57:07.121Z,83.60
2022-11-05T01:57:18.074Z,83.51
2022-11-05T01:57:28.570Z,83.60
2022-11-05T01:57:38.560Z,83.58
2022-11-05T01:57:48.025Z,83.64
2022-11-05T01:57:58.572Z,83.55
2022-11-05T01:58:07.113Z,83.58
2022-11-05T01:58:18.050Z,83.51
2022-11-05T01:58:28.554Z,83.57
2022-11-05T01:58:38.540Z,83.62
2022-11-05T01:58:47.928Z,83.55
2022-11-05T01:58:57.102Z,83.54
2022-11-05T01:59:07.111Z,83.49
2022-11-05T01:59:17.482Z,83.58
2022-11-05T01:59:27.089Z,83.58
2022-11-05T01:59:38.540Z,83.53
2022-11-05T01:59:48.562Z,83.65
2022-11-05T01:59:58.533Z,83.56
2022-11-05T02:00:07.092Z,83.56
2022-11-05T02:00:17.592Z,83.50
2022-11-05T02:00:28.521Z,83.52
2022-11-05T02:00:37.085Z,83.61
2022-11-05T02:00:47.191Z,83.49
2022-11-05T02:00:57.062Z,83.51
2022-11-05T02:01:07.090Z,83.52
2022-11-05T02:01:17.942Z,83.52
2022-11-05T02:01:28.667Z,83.59
2022-11-05T02:01:37.399Z,83.58
2022-11-05T02:01:47.891Z,83.48
2022-11-05T02:01:58.662Z,83.53
2022-11-05T02:02:07.931Z,83.55
2022-11-05T02:02:17.171Z,83.50
2022-11-05T02:02:28.660Z,83.48
2022-11-05T02:02:38.144Z,83.56
2022-11-05T02:02:47.477Z,83.52
2022-11-05T02:02:58.603Z,83.47
2022-11-05T02:03:07.222Z,83.51
2022-11-05T02:03:18.630Z,83.44
2022-11-05T02:03:27.095Z,83.54
2022-11-05T02:03:37.103Z,83.46
2022-11-05T02:03:48.552Z,83.48
2022-11-05T02:03:57.081Z,83.56
2022-11-05T02:04:07.082Z,83.44
2022-11-05T02:04:18.523Z,83.47
2022-11-05T02:04:28.020Z,83.55
2022-11-05T02:04:38.533Z,83.49
2022-11-05T02:04:47.061Z,83.54
2022-11-05T02:04:57.073Z,83.50
2022-11-05T02:05:07.073Z,83.45
2022-11-05T02:05:18.521Z,83.50
2022-11-05T02:05:27.058Z,83.60
2022-11-05T02:05:38.502Z,83.45
2022-11-05T02:05:48.082Z,83.62
2022-11-05T02:05:58.503Z,83.55
2022-11-05T02:06:08.490Z,83.54
2022-11-05T02:06:18.512Z,83.58
2022-11-05T02:06:27.993Z,83.52
2022-11-05T02:06:37.064Z,83.54
2022-11-05T02:06:47.056Z,83.47
2022-11-05T02:06:57.055Z,83.48
2022-11-05T02:07:08.493Z,83.54
2022-11-05T02:07:18.486Z,83.63
2022-11-05T02:07:28.482Z,83.64
2022-11-05T02:07:38.915Z,83.60
2022-11-05T02:07:47.057Z,83.66
2022-11-05T02:07:58.504Z,83.53
2022-11-05T02:08:07.684Z,83.61
2022-11-05T02:08:18.041Z,83.60
2022-11-05T02:08:28.034Z,83.60
2022-11-05T02:08:38.504Z,83.66
2022-11-05T02:08:47.075Z,83.65